Soperton, GA (30457)

4:23 AM EDT on July 30, 2014 (GMT -0400)
South Treutlen Co. (KGATARRY2) Elev 236 ft | 32.32 °N, 82.60 °W | Change Station

Current weather conditions updated 8 seconds ago

Overcast
Overcast
63.8 °F
Feels Like 63.8 °F
N
0.0
Wind Variable Wind from North
Gusts 0.0 mph

Today is forecast to be nearly the same temperature as yesterday.

Today
High -- | Low -- °F
--% Chance of Precip.
Yesterday
High -- | Low -- °F
Precip. -- in
6:43 AM 8:29 PM
Waxing Crescent, 10% visible
Pressure 29.98 in
Visibility 10.0 miles
Clouds Overcast 8000 ft
Dew Point 63 °F
Humidity 97%
Rainfall 0.00 in
Snow Depth Not available.
UV 0 out of 12
Pollen 5.20 out of 12
Air Quality Not available.
Flu Activity Not available.
METAR KSBO 300815Z AUTO 32003KT 10SM OVC080 20/20 A2998 RMK AO2

More Conditions Fewer Conditions

Pressure 29.98 in
Visibility 10.0 miles
Clouds Overcast 8000 ft
Dew Point 63 °F
Humidity 97%
Rainfall 0.00 in
Snow Depth Not available.
UV 0 out of 12
Pollen 5.20 out of 12
Air Quality Not available.
Flu Activity Not available.
METAR KSBO 300815Z AUTO 32003KT 10SM OVC080 20/20 A2998 RMK AO2

More Conditions Fewer Conditions

10-Day Weather Forecast

Almanac

Astronomy

Jul. 30, 2014 Rise Set
Actual Time 6:43 AM EDT 8:29 PM EDT
Civil Twilight 6:16 AM EDT 8:56 PM EDT
Nautical Twilight 5:44 AM EDT 9:28 PM EDT
Astronomical Twilight 5:09 AM EDT 10:02 PM EDT
Moon 9:59 AM EDT 10:27 PM EDT
Length of Visible Light 14h 39m
Length of Day
13h 45m
Tomorrow will be 1m 26s shorter.
Waxing Crescent, 10% of the Moon is Illuminated
Today
Waxing Crescent
Aug 3
First Quarter
Aug 10
Full
Aug 17
Last Quarter
Aug 25
New

Today's Extremes

State Highs State Lows

Community

WunderPhotos

Upload Photos

1,739,022 photos uploaded!

WunderBlogs® & News

By Dr. Jeff Masters
Director of Meteorology, Weather Underground
By Kari Strenfel
Meteorologist, Weather Underground
By Christopher C. Burt
Weather Historian, Weather Underground
July 29, 2014
July 29, 2014
July 29, 2014

Nearby

Snow Depth

Station Depth Elevation
No new snow has been reported.

Earthquake Activity

City Distance Mag. Time & Date
No recent earthquake activity has been reported nearby.
Minimum magnitude displayed is 2.5.

Coastal Water Temperatures

Place Temperature
No Stations Reporting

Nearby Weather Stations

Station Location Temp. Dew Point Humidity Wind Precip. Elev Updated Type
South Treutlen Co., Soperton, GA 63.8 °F 63 °F 97% North  at  0.0 mph 0.00 in / hr 236 ft 4:23 AM EDT Rapid Fire
Alamo, Alamo, GA 68.0 °F 63 °F 84% NNW  at  1.1 mph - / hr 259 ft 2:15 AM EDT Normal

Show More Stations Show Fewer Stations